TimeAKDT,TemperatureF,Dew PointF,Humidity,Sea Level PressureIn,VisibilityMPH,Wind Direction,Wind SpeedMPH,Gust SpeedMPH,PrecipitationIn,Events,Conditions,WindDirDegrees,DateUTC
12:16 AM,51.8,42.8,71,29.69,10.0,North,3.5,-,N/A,,Overcast,10,2013-10-10 08:16:00
12:36 AM,50.0,42.8,76,29.68,10.0,North,8.1,-,N/A,,Overcast,10,2013-10-10 08:36:00
12:56 AM,51.8,41.0,67,29.67,10.0,North,13.8,19.6,N/A,,Overcast,10,2013-10-10 08:56:00
1:16 AM,51.8,42.8,71,29.66,10.0,NNE,12.7,-,N/A,,Overcast,20,2013-10-10 09:16:00
1:36 AM,50.0,42.8,76,29.66,10.0,NE,8.1,-,N/A,,Overcast,40,2013-10-10 09:36:00
1:56 AM,51.8,42.8,71,29.65,10.0,West,11.5,16.1,N/A,,Overcast,270,2013-10-10 09:56:00
2:16 AM,51.8,42.8,71,29.64,10.0,North,6.9,-,N/A,,Overcast,10,2013-10-10 10:16:00
2:36 AM,50.0,42.8,76,29.63,10.0,NE,4.6,-,N/A,,Overcast,40,2013-10-10 10:36:00
2:56 AM,51.8,42.8,71,29.62,10.0,East,5.8,18.4,N/A,,Overcast,80,2013-10-10 10:56:00
3:16 AM,51.8,42.8,71,29.61,10.0,NNW,3.5,-,N/A,,Overcast,330,2013-10-10 11:16:00
3:36 AM,50.0,44.6,82,29.60,10.0,NNE,9.2,-,N/A,,Overcast,30,2013-10-10 11:36:00
3:56 AM,51.8,42.8,71,29.60,10.0,NNE,6.9,17.3,N/A,,Overcast,20,2013-10-10 11:56:00
4:16 AM,51.8,42.8,71,29.60,10.0,East,3.5,-,N/A,,Overcast,90,2013-10-10 12:16:00
4:36 AM,53.6,41.0,62,29.59,10.0,Calm,Calm,-,N/A,,Overcast,0,2013-10-10 12:36:00
4:56 AM,51.8,42.8,71,29.59,10.0,NW,3.5,20.7,N/A,,Overcast,310,2013-10-10 12:56:00
5:16 AM,53.6,41.0,62,29.58,10.0,SSW,9.2,21.9,N/A,,Mostly Cloudy,210,2013-10-10 13:16:00
5:36 AM,53.6,41.0,62,29.58,10.0,SW,3.5,-,N/A,,Overcast,230,2013-10-10 13:36:00
5:56 AM,51.8,42.8,71,29.57,10.0,East,9.2,-,N/A,,Overcast,80,2013-10-10 13:56:00
6:16 AM,51.8,42.8,71,29.57,10.0,South,4.6,-,N/A,,Overcast,170,2013-10-10 14:16:00
6:36 AM,51.8,42.8,71,29.56,10.0,North,4.6,-,N/A,,Overcast,350,2013-10-10 14:36:00
6:56 AM,51.8,42.8,71,29.56,10.0,East,12.7,18.4,N/A,,Overcast,100,2013-10-10 14:56:00
7:16 AM,51.8,42.8,71,29.56,10.0,North,5.8,-,N/A,,Overcast,360,2013-10-10 15:16:00
7:36 AM,51.8,42.8,71,29.56,10.0,North,6.9,-,N/A,,Overcast,350,2013-10-10 15:36:00
7:56 AM,51.8,42.8,71,29.55,10.0,Calm,Calm,-,N/A,,Overcast,0,2013-10-10 15:56:00
8:16 AM,51.8,42.8,71,29.55,10.0,ESE,5.8,-,N/A,,Mostly Cloudy,110,2013-10-10 16:16:00
8:36 AM,51.8,42.8,71,29.55,10.0,ENE,12.7,-,N/A,,Overcast,60,2013-10-10 16:36:00
8:56 AM,51.8,42.8,71,29.55,10.0,SSW,9.2,-,N/A,,Overcast,210,2013-10-10 16:56:00
9:16 AM,50.0,44.6,82,29.54,10.0,South,11.5,-,N/A,,Mostly Cloudy,190,2013-10-10 17:16:00
9:36 AM,50.0,44.6,82,29.54,10.0,North,9.2,-,N/A,,Scattered Clouds,10,2013-10-10 17:36:00
9:56 AM,50.0,44.6,82,29.55,10.0,Calm,Calm,-,N/A,,Mostly Cloudy,0,2013-10-10 17:56:00
10:16 AM,50.0,44.6,82,29.55,10.0,Calm,Calm,-,N/A,,Mostly Cloudy,0,2013-10-10 18:16:00
10:36 AM,51.8,44.6,76,29.55,10.0,ENE,3.5,-,N/A,,Overcast,70,2013-10-10 18:36:00
10:56 AM,51.8,44.6,76,29.55,10.0,NNW,5.8,-,N/A,,Overcast,340,2013-10-10 18:56:00
11:16 AM,51.8,44.6,76,29.55,10.0,North,5.8,-,N/A,,Overcast,360,2013-10-10 19:16:00
11:36 AM,50.0,46.4,87,29.55,10.0,North,5.8,-,N/A,,Overcast,10,2013-10-10 19:36:00
11:56 AM,50.0,44.6,82,29.55,10.0,NNE,9.2,-,N/A,,Mostly Cloudy,30,2013-10-10 19:56:00
12:16 PM,50.0,44.6,82,29.56,10.0,NNE,6.9,-,N/A,,Overcast,30,2013-10-10 20:16:00
12:36 PM,50.0,44.6,82,29.56,10.0,Calm,Calm,-,N/A,,Overcast,0,2013-10-10 20:36:00
1:16 PM,50.0,42.8,76,29.56,10.0,North,12.7,-,N/A,,Overcast,360,2013-10-10 21:16:00
1:36 PM,48.2,42.8,82,29.57,10.0,North,13.8,-,N/A,,Overcast,10,2013-10-10 21:36:00
1:56 PM,48.2,44.6,87,29.58,8.0,WNW,10.4,-,N/A,,Overcast,300,2013-10-10 21:56:00
2:16 PM,46.4,42.8,87,29.58,5.0,WNW,12.7,-,N/A,,Overcast,290,2013-10-10 22:16:00
2:36 PM,46.4,42.8,87,29.59,5.0,WNW,11.5,-,N/A,,Overcast,290,2013-10-10 22:36:00
2:56 PM,46.4,41.0,81,29.59,7.0,WNW,9.2,-,0.03,,Overcast,300,2013-10-10 22:56:00
3:16 PM,46.4,41.0,81,29.59,10.0,WNW,6.9,-,0.02,,Overcast,290,2013-10-10 23:16:00
3:36 PM,46.4,39.2,76,29.59,10.0,NW,8.1,-,0.02,,Overcast,310,2013-10-10 23:36:00
3:56 PM,46.4,41.0,81,29.60,10.0,WNW,4.6,-,0.02,,Overcast,300,2013-10-10 23:56:00
4:16 PM,46.4,39.2,76,29.59,10.0,NW,4.6,-,N/A,,Overcast,320,2013-10-11 00:16:00
4:36 PM,48.2,42.8,82,29.60,10.0,Calm,Calm,-,N/A,,Overcast,0,2013-10-11 00:36:00
4:56 PM,48.2,39.2,71,29.60,10.0,Calm,Calm,-,N/A,,Overcast,0,2013-10-11 00:56:00
5:16 PM,48.2,39.2,71,29.60,10.0,Calm,Calm,-,N/A,,Overcast,0,2013-10-11 01:16:00
5:36 PM,48.2,41.0,76,29.60,10.0,Calm,Calm,-,N/A,,Overcast,0,2013-10-11 01:36:00
5:56 PM,48.2,39.2,71,29.60,10.0,Calm,Calm,-,N/A,,Overcast,0,2013-10-11 01:56:00
6:16 PM,48.2,42.8,82,29.60,10.0,South,3.5,-,N/A,,Scattered Clouds,190,2013-10-11 02:16:00
6:36 PM,48.2,42.8,82,29.61,10.0,Calm,Calm,-,N/A,,Mostly Cloudy,0,2013-10-11 02:36:00
6:56 PM,46.4,41.0,81,29.61,10.0,Calm,Calm,-,N/A,,Scattered Clouds,0,2013-10-11 02:56:00
7:16 PM,46.4,42.8,87,29.61,10.0,Calm,Calm,-,N/A,,Partly Cloudy,0,2013-10-11 03:16:00
7:36 PM,46.4,41.0,81,29.61,10.0,Calm,Calm,-,N/A,,Clear,0,2013-10-11 03:36:00
7:56 PM,46.4,41.0,81,29.62,10.0,Calm,Calm,-,N/A,,Mostly Cloudy,0,2013-10-11 03:56:00
8:16 PM,44.6,41.0,87,29.63,10.0,Calm,Calm,-,N/A,,Mostly Cloudy,0,2013-10-11 04:16:00
8:36 PM,44.6,42.8,93,29.64,10.0,NE,4.6,-,N/A,,Mostly Cloudy,40,2013-10-11 04:36:00
8:56 PM,46.4,42.8,87,29.64,10.0,NE,5.8,-,N/A,,Overcast,40,2013-10-11 04:56:00
9:16 PM,44.6,42.8,93,29.64,10.0,Calm,Calm,-,N/A,,Mostly Cloudy,0,2013-10-11 05:16:00
9:36 PM,44.6,42.8,93,29.65,10.0,Calm,Calm,-,N/A,,Mostly Cloudy,0,2013-10-11 05:36:00
9:56 PM,44.6,42.8,93,29.66,10.0,ENE,3.5,-,N/A,,Overcast,70,2013-10-11 05:56:00
10:16 PM,44.6,41.0,87,29.66,10.0,ESE,3.5,-,N/A,,Overcast,110,2013-10-11 06:16:00
10:36 PM,44.6,41.0,87,29.66,10.0,Calm,Calm,-,N/A,,Overcast,0,2013-10-11 06:36:00
10:56 PM,42.8,42.8,100,29.67,10.0,NE,5.8,-,N/A,,Overcast,40,2013-10-11 06:56:00
11:16 PM,44.6,42.8,93,29.68,10.0,NE,5.8,-,N/A,,Mostly Cloudy,40,2013-10-11 07:16:00
11:36 PM,44.6,42.8,93,29.68,10.0,Calm,Calm,-,N/A,,Mostly Cloudy,0,2013-10-11 07:36:00
11:56 PM,44.6,41.0,87,29.69,10.0,Calm,Calm,-,N/A,,Mostly Cloudy,0,2013-10-11 07:56:00